Metar z pełnej godziny Komunikat METAR ze strony awiacja.imgw.pl Metar G00 EPGD METAR EPGD 291900Z 36010KT CAVOK 10/04 Q1026 =